Time;durP1;ratioP1;P1;durP2;ratioP2;P2;SDS_P1;SDS_P2;PMS_P1;PMS_P2;Temp;Humidity;BMP_temperature;BMP_pressure;BME280_temperature;BME280_humidity;BME280_pressure;Samples;Min_cycle;Max_cycle;Signal;HPM_P1;HPM_P2
2022/07/09 00:07:31;;;;;;;12.73;8.73;;;16.50;99.90;;;;;;5016640;28;20022;-28
2022/07/09 00:09:57;;;;;;;12.70;8.63;;;16.50;99.90;;;;;;5023576;28;20040;-28
2022/07/09 00:12:22;;;;;;;13.48;8.82;;;16.40;99.90;;;;;;5029137;28;20042;-28
2022/07/09 00:14:50;;;;;;;17.15;8.55;;;16.40;99.90;;;;;;5030305;28;20109;-28
2022/07/09 00:17:16;;;;;;;12.02;8.75;;;16.40;99.90;;;;;;5024559;28;20547;-28
2022/07/09 00:19:42;;;;;;;13.00;8.90;;;16.40;99.90;;;;;;5028482;28;20129;-28
2022/07/09 00:22:08;;;;;;;14.15;9.13;;;16.50;99.90;;;;;;5026499;28;20049;-28
2022/07/09 00:24:33;;;;;;;12.70;8.88;;;16.50;99.90;;;;;;5027664;28;20042;-28
2022/07/09 00:26:59;;;;;;;12.52;9.10;;;16.40;99.90;;;;;;5028675;28;20519;-28
2022/07/09 00:29:25;;;;;;;12.70;8.30;;;16.40;99.90;;;;;;5023202;28;20037;-28
2022/07/09 00:39:18;;;;;;;13.27;8.52;;;16.40;99.90;;;;;;5045504;28;20024;-28
2022/07/09 00:41:44;;;;;;;14.43;8.52;;;16.40;99.90;;;;;;5035533;28;20138;-29
2022/07/09 00:44:10;;;;;;;11.40;8.57;;;16.40;99.90;;;;;;5033937;28;20037;-29
2022/07/09 00:46:35;;;;;;;12.80;8.60;;;16.40;99.90;;;;;;5020717;28;20526;-28
2022/07/09 00:49:03;;;;;;;13.20;7.90;;;16.50;99.90;;;;;;5029175;28;20076;-29
2022/07/09 00:51:30;;;;;;;11.13;7.05;;;16.50;99.90;;;;;;5040627;28;20621;-28
2022/07/09 00:53:56;;;;;;;13.52;8.27;;;16.50;99.90;;;;;;5034465;28;20029;-29
2022/07/09 00:56:23;;;;;;;12.63;7.97;;;16.50;99.90;;;;;;5036392;28;20040;-28
2022/07/09 00:58:59;;;;;;;12.07;8.60;;;16.50;99.90;;;;;;5036208;28;20040;-25
2022/07/09 01:01:26;;;;;;;9.65;7.00;;;16.50;99.90;;;;;;5053807;28;20474;-25
2022/07/09 01:03:51;;;;;;;12.55;8.00;;;16.50;99.90;;;;;;5053877;28;20060;-28
2022/07/09 01:06:20;;;;;;;12.07;7.60;;;16.50;99.90;;;;;;5038686;28;20045;-28
2022/07/09 01:08:46;;;;;;;13.70;8.25;;;16.50;99.90;;;;;;5032023;28;20056;-28
2022/07/09 01:11:11;;;;;;;11.35;7.95;;;16.50;99.90;;;;;;5043970;28;20131;-28
2022/07/09 01:13:37;;;;;;;14.63;8.18;;;16.40;99.90;;;;;;5036049;28;20396;-28
2022/07/09 01:16:03;;;;;;;9.77;7.30;;;16.40;99.90;;;;;;5040916;28;20038;-28
2022/07/09 01:18:29;;;;;;;9.77;7.60;;;16.30;99.90;;;;;;5006998;28;20041;-28
2022/07/09 01:20:55;;;;;;;10.93;7.60;;;16.30;99.90;;;;;;5040262;28;20041;-28
2022/07/09 01:23:20;;;;;;;12.52;8.35;;;16.30;99.90;;;;;;5039842;28;20112;-28
2022/07/09 01:25:47;;;;;;;13.10;7.60;;;16.30;99.90;;;;;;5044260;28;20033;-28
2022/07/09 01:28:14;;;;;;;10.63;7.28;;;16.20;99.90;;;;;;5035815;28;20035;-28
2022/07/09 01:30:43;;;;;;;11.48;7.40;;;16.20;99.90;;;;;;5052241;28;20072;-28
2022/07/09 01:33:09;;;;;;;14.35;8.45;;;16.10;99.90;;;;;;5060596;28;20044;-28
2022/07/09 01:35:36;;;;;;;14.32;8.50;;;16.10;99.90;;;;;;5056905;28;20442;-28
2022/07/09 01:38:07;;;;;;;13.25;8.32;;;16.20;99.90;;;;;;5052997;28;20029;-28
2022/07/09 01:40:33;;;;;;;15.02;9.35;;;16.10;99.90;;;;;;5046400;28;20033;-28
2022/07/09 01:43:02;;;;;;;14.40;9.57;;;16.10;99.90;;;;;;5052509;28;20095;-28
2022/07/09 01:45:31;;;;;;;19.85;11.25;;;16.10;99.90;;;;;;5028260;28;20483;-28
2022/07/09 01:48:00;;;;;;;16.88;9.23;;;16.20;99.90;;;;;;5058987;28;20048;-28
2022/07/09 01:50:29;;;;;;;19.00;9.73;;;16.20;99.90;;;;;;5041713;28;20491;-28
2022/07/09 01:52:55;;;;;;;13.82;10.13;;;16.20;99.90;;;;;;5037515;28;20065;-28
2022/07/09 01:55:21;;;;;;;14.20;10.60;;;16.20;99.90;;;;;;5044311;28;20041;-28
2022/07/09 01:57:46;;;;;;;14.35;10.02;;;16.30;99.90;;;;;;5030001;28;20091;-28
2022/07/09 02:07:40;;;;;;;18.13;10.50;;;16.20;99.90;;;;;;5046706;28;20060;-28
2022/07/09 02:10:06;;;;;;;14.75;11.02;;;16.30;99.90;;;;;;5030800;28;20068;-28
2022/07/09 02:12:31;;;;;;;15.93;10.75;;;16.30;99.90;;;;;;5029540;28;20168;-28
2022/07/09 02:14:57;;;;;;;14.77;10.93;;;16.30;99.90;;;;;;5066728;28;20070;-28
2022/07/09 02:17:23;;;;;;;14.32;10.40;;;16.30;99.90;;;;;;5054731;28;20037;-28
2022/07/09 02:19:49;;;;;;;16.77;11.20;;;16.30;99.90;;;;;;5042653;28;20036;-28
2022/07/09 02:22:14;;;;;;;16.25;11.23;;;16.30;99.90;;;;;;5041914;28;20037;-28
2022/07/09 02:24:40;;;;;;;14.52;10.75;;;16.30;99.90;;;;;;5044333;28;20396;-28
2022/07/09 02:27:06;;;;;;;14.60;11.88;;;16.30;99.90;;;;;;5039602;28;20044;-28
2022/07/09 02:29:42;;;;;;;14.77;11.93;;;16.30;99.90;;;;;;5038254;28;20048;-28
2022/07/09 02:32:15;;;;;;;16.88;12.40;;;16.30;99.90;;;;;;5045968;28;20033;-28
2022/07/09 02:34:40;;;;;;;16.80;11.27;;;16.30;99.90;;;;;;5039856;28;20499;-28
2022/07/09 02:37:07;;;;;;;16.05;11.52;;;16.40;99.90;;;;;;5039809;28;20036;-28
2022/07/09 02:39:33;;;;;;;14.02;11.77;;;16.40;99.90;;;;;;5038250;28;20041;-28
2022/07/09 02:41:59;;;;;;;16.08;12.05;;;16.30;99.90;;;;;;5039997;28;20047;-28
2022/07/09 02:48:06;;;;;;;15.60;11.27;;;16.30;99.90;;;;;;5044757;28;20064;-28
2022/07/09 02:50:32;;;;;;;18.10;11.52;;;16.30;99.90;;;;;;5038599;28;20068;-28
2022/07/09 02:52:58;;;;;;;16.48;11.13;;;16.30;99.90;;;;;;5027382;28;20049;-28
2022/07/09 02:55:23;;;;;;;12.82;11.40;;;16.20;99.90;;;;;;5047755;28;20040;-28
2022/07/09 02:57:49;;;;;;;13.60;11.07;;;16.20;99.90;;;;;;5044771;28;20513;-28
2022/07/09 03:00:15;;;;;;;13.32;10.65;;;16.20;99.90;;;;;;5037471;28;20052;-28
2022/07/09 03:02:40;;;;;;;13.30;10.20;;;16.20;99.90;;;;;;5039852;28;20041;-28
2022/07/09 03:05:07;;;;;;;11.68;10.48;;;16.20;99.90;;;;;;5034012;28;20041;-28
2022/07/09 03:07:32;;;;;;;17.05;11.30;;;16.20;99.90;;;;;;5044945;28;20044;-28
2022/07/09 03:09:58;;;;;;;12.88;10.98;;;16.20;99.90;;;;;;5036294;28;20519;-28
2022/07/09 03:12:24;;;;;;;11.57;10.18;;;16.20;99.90;;;;;;5045947;28;20430;-28
2022/07/09 03:14:50;;;;;;;13.88;10.75;;;16.20;99.90;;;;;;5040061;28;20044;-28
2022/07/09 03:17:16;;;;;;;13.57;10.95;;;16.20;99.90;;;;;;5027591;28;20037;-28
2022/07/09 03:27:31;;;;;;;13.20;10.25;;;16.30;99.90;;;;;;5038055;28;20041;-28
2022/07/09 03:29:58;;;;;;;15.18;9.82;;;16.30;99.90;;;;;;5034612;28;20033;-28
2022/07/09 03:32:24;;;;;;;16.20;9.63;;;16.30;99.90;;;;;;5045277;28;20491;-28
2022/07/09 03:34:52;;;;;;;13.98;9.65;;;16.30;99.90;;;;;;5021109;28;20091;-28
2022/07/09 03:37:18;;;;;;;14.38;11.05;;;16.40;99.90;;;;;;5038257;28;20113;-28
2022/07/09 03:39:47;;;;;;;13.65;10.18;;;16.40;99.90;;;;;;5039757;28;20040;-28
2022/07/09 03:42:13;;;;;;;13.55;9.90;;;16.40;99.90;;;;;;5038517;28;20036;-28
2022/07/09 03:44:39;;;;;;;13.02;10.10;;;16.40;99.90;;;;;;5036342;28;20037;-28
2022/07/09 03:47:06;;;;;;;13.27;10.05;;;16.40;99.90;;;;;;5019766;28;20028;-28
2022/07/09 03:53:12;;;;;;;16.80;10.45;;;16.50;99.90;;;;;;5050096;28;20059;-28
2022/07/09 03:55:38;;;;;;;16.55;10.45;;;16.40;99.90;;;;;;5038529;28;20029;-28
2022/07/09 03:58:04;;;;;;;14.35;10.20;;;16.40;99.90;;;;;;5043631;28;20043;-28
2022/07/09 04:00:30;;;;;;;12.23;10.07;;;16.30;99.90;;;;;;5037494;28;20076;-28
2022/07/09 04:03:03;;;;;;;13.80;10.43;;;16.30;99.90;;;;;;5039950;28;20068;-28
2022/07/09 04:05:32;;;;;;;16.63;10.77;;;16.30;99.90;;;;;;5050866;28;20103;-25
2022/07/09 04:07:57;;;;;;;16.17;11.50;;;16.30;99.90;;;;;;5034312;28;20040;-25
2022/07/09 04:10:23;;;;;;;17.73;10.63;;;16.20;99.90;;;;;;5035547;28;20048;-25
2022/07/09 04:12:49;;;;;;;19.38;12.25;;;16.20;99.90;;;;;;5038842;28;20049;-25
2022/07/09 04:15:15;;;;;;;15.25;11.30;;;16.20;99.90;;;;;;5038522;28;20053;-25
2022/07/09 04:17:41;;;;;;;18.75;11.73;;;16.20;99.90;;;;;;5039264;28;20073;-25
2022/07/09 04:20:07;;;;;;;16.25;11.23;;;16.20;99.90;;;;;;5038776;28;20035;-25
2022/07/09 04:22:33;;;;;;;12.10;10.48;;;16.20;99.90;;;;;;5038614;28;20072;-25
2022/07/09 04:24:59;;;;;;;16.48;9.93;;;16.20;99.90;;;;;;5037706;28;20037;-25
2022/07/09 04:32:28;;;;;;;18.08;11.48;;;16.30;99.90;;;;;;5049126;28;20045;-31
2022/07/09 04:34:55;;;;;;;17.08;10.48;;;16.30;99.90;;;;;;5031442;28;20048;-32
2022/07/09 04:37:24;;;;;;;15.52;10.60;;;16.30;99.90;;;;;;5046787;28;20111;-31
2022/07/09 04:39:50;;;;;;;14.70;10.82;;;16.40;99.90;;;;;;5036392;28;20411;-32
2022/07/09 04:42:17;;;;;;;19.17;11.88;;;16.40;99.90;;;;;;5028147;23;20030;-33
2022/07/09 04:44:43;;;;;;;15.50;10.38;;;16.40;99.90;;;;;;5038245;28;20033;-30
2022/07/09 04:47:11;;;;;;;16.25;10.77;;;16.40;99.90;;;;;;5054815;28;20090;-36
2022/07/09 04:49:37;;;;;;;14.88;11.48;;;16.40;99.90;;;;;;5063081;28;20460;-34
2022/07/09 04:52:16;;;;;;;16.38;11.13;;;16.40;99.90;;;;;;5059444;28;20044;-35
2022/07/09 04:54:44;;;;;;;14.73;10.50;;;16.40;99.90;;;;;;5052471;28;20043;-35
2022/07/09 04:57:12;;;;;;;15.60;11.85;;;16.50;99.90;;;;;;5078989;28;20063;-32
2022/07/09 04:59:41;;;;;;;15.20;10.93;;;16.50;99.90;;;;;;5085536;28;20043;-33
2022/07/09 05:02:10;;;;;;;18.10;12.02;;;16.60;99.90;;;;;;5057535;28;20041;-33
2022/07/09 05:04:36;;;;;;;18.98;11.70;;;16.60;99.90;;;;;;5078423;28;20080;-34
2022/07/09 05:07:02;;;;;;;13.73;10.35;;;16.70;99.90;;;;;;5055521;28;20426;-37
2022/07/09 05:09:28;;;;;;;13.32;10.13;;;16.80;99.90;;;;;;5065326;28;20040;-33
2022/07/09 05:11:54;;;;;;;13.82;10.85;;;16.90;99.90;;;;;;5073723;28;20048;-35
2022/07/09 05:14:21;;;;;;;16.60;10.93;;;17.00;99.90;;;;;;5036911;28;20044;-33
2022/07/09 05:16:48;;;;;;;16.10;10.38;;;17.20;99.90;;;;;;5064928;28;20032;-34
2022/07/09 05:19:17;;;;;;;16.67;10.43;;;17.30;99.90;;;;;;5068764;28;20529;-34
2022/07/09 05:21:43;;;;;;;14.85;9.73;;;17.40;99.90;;;;;;5061519;28;20043;-34
2022/07/09 05:24:12;;;;;;;12.85;9.35;;;17.50;99.90;;;;;;5091295;28;20039;-33
2022/07/09 05:26:37;;;;;;;11.85;8.75;;;17.50;99.90;;;;;;5079052;28;20516;-35
2022/07/09 05:29:06;;;;;;;11.52;9.50;;;17.50;99.90;;;;;;5061991;28;20044;-34
2022/07/09 05:31:32;;;;;;;14.40;9.10;;;17.60;99.90;;;;;;5082547;28;20051;-34
2022/07/09 05:34:00;;;;;;;10.60;8.40;;;17.50;99.90;;;;;;5085981;28;20037;-36
2022/07/09 05:36:29;;;;;;;10.93;8.00;;;17.50;99.90;;;;;;5041198;28;20043;-34
2022/07/09 05:38:59;;;;;;;10.30;8.15;;;17.50;99.90;;;;;;5084361;28;20058;-34
2022/07/09 05:41:26;;;;;;;9.45;7.70;;;17.50;99.90;;;;;;5084592;28;20521;-35
2022/07/09 05:43:52;;;;;;;11.82;7.70;;;17.60;99.90;;;;;;5080562;28;20033;-34
2022/07/09 05:46:18;;;;;;;8.32;6.97;;;17.60;99.90;;;;;;5046815;28;20480;-34
2022/07/09 05:48:44;;;;;;;13.15;7.90;;;17.60;99.90;;;;;;5069325;28;20040;-34
2022/07/09 05:51:11;;;;;;;10.73;7.35;;;17.60;99.90;;;;;;5055475;28;20043;-34
2022/07/09 05:53:44;;;;;;;10.80;7.70;;;17.70;99.90;;;;;;5063954;28;20513;-34
2022/07/09 05:56:10;;;;;;;9.27;6.97;;;17.80;99.90;;;;;;5062998;28;20078;-34
2022/07/09 05:58:37;;;;;;;10.93;7.68;;;17.90;99.90;;;;;;5055281;28;20069;-34
2022/07/09 06:01:03;;;;;;;9.82;7.05;;;18.00;99.90;;;;;;5083801;28;20037;-36
2022/07/09 06:03:29;;;;;;;9.55;6.85;;;18.00;99.90;;;;;;5085260;28;20477;-34
2022/07/09 06:05:54;;;;;;;9.68;6.38;;;18.10;99.90;;;;;;5084076;28;20068;-35
2022/07/09 06:08:20;;;;;;;9.52;5.80;;;18.10;99.90;;;;;;5084074;28;20036;-33
2022/07/09 06:10:46;;;;;;;9.00;7.38;;;18.20;99.90;;;;;;5057444;28;20383;-35
2022/07/09 06:13:11;;;;;;;9.80;6.63;;;18.20;99.90;;;;;;5084411;28;20032;-33
2022/07/09 06:15:37;;;;;;;10.18;6.50;;;18.20;99.90;;;;;;5081255;28;20043;-35
2022/07/09 06:18:03;;;;;;;8.23;6.15;;;18.30;99.90;;;;;;5081980;28;20067;-34
2022/07/09 06:20:28;;;;;;;7.80;4.97;;;18.30;99.90;;;;;;5084410;28;20032;-32
2022/07/09 06:22:57;;;;;;;6.95;4.95;;;18.30;99.90;;;;;;5080352;28;20094;-33
2022/07/09 06:25:23;;;;;;;5.78;4.88;;;18.40;99.90;;;;;;5063847;28;20040;-33
2022/07/09 06:27:49;;;;;;;5.70;5.00;;;18.50;99.90;;;;;;5078313;28;20364;-34
2022/07/09 06:30:14;;;;;;;7.40;5.03;;;18.60;99.90;;;;;;5068788;28;20115;-34
2022/07/09 06:32:40;;;;;;;5.88;4.88;;;18.70;99.90;;;;;;5072346;28;20371;-32
2022/07/09 06:35:06;;;;;;;5.28;4.72;;;18.80;99.90;;;;;;5079667;28;20435;-36
2022/07/09 06:37:32;;;;;;;7.05;4.90;;;18.80;99.90;;;;;;5069317;28;20394;-36
2022/07/09 06:39:59;;;;;;;7.15;4.63;;;18.80;99.90;;;;;;5076717;28;20044;-33
2022/07/09 06:42:25;;;;;;;9.52;4.60;;;18.90;99.90;;;;;;5077661;28;20110;-33
2022/07/09 06:44:51;;;;;;;7.32;4.43;;;19.00;99.90;;;;;;5087856;28;20139;-37
2022/07/09 06:47:17;;;;;;;6.78;4.57;;;19.00;99.90;;;;;;5080792;28;20123;-35
2022/07/09 06:49:43;;;;;;;5.70;4.32;;;18.90;99.90;;;;;;5072162;28;20037;-35
2022/07/09 06:52:09;;;;;;;5.32;4.28;;;18.90;99.90;;;;;;5066891;28;20115;-33
2022/07/09 06:54:36;;;;;;;8.32;4.80;;;18.80;99.90;;;;;;5085845;28;20128;-35
2022/07/09 06:57:02;;;;;;;7.47;4.50;;;18.80;99.90;;;;;;5083731;28;20529;-35
2022/07/09 06:59:28;;;;;;;7.13;4.28;;;18.80;99.90;;;;;;5082833;28;20063;-34
2022/07/09 07:01:54;;;;;;;7.22;4.28;;;18.80;99.90;;;;;;5067715;28;20398;-34
2022/07/09 07:04:20;;;;;;;5.07;4.18;;;18.80;99.90;;;;;;5086785;28;20044;-33
2022/07/09 07:06:48;;;;;;;5.80;4.05;;;18.90;99.90;;;;;;5046311;28;20490;-35
2022/07/09 07:09:15;;;;;;;5.90;4.10;;;18.90;99.90;;;;;;5080908;28;20089;-34
2022/07/09 07:11:41;;;;;;;6.13;4.20;;;19.00;99.90;;;;;;5078793;28;20372;-34
2022/07/09 07:14:07;;;;;;;5.80;3.78;;;19.00;99.90;;;;;;5073451;28;20041;-36
2022/07/09 07:16:33;;;;;;;4.97;3.78;;;19.10;99.90;;;;;;5080807;28;20044;-36
2022/07/09 07:18:59;;;;;;;4.80;3.80;;;19.10;99.90;;;;;;5057632;28;20071;-35
2022/07/09 07:21:24;;;;;;;6.22;3.83;;;19.10;99.90;;;;;;5075735;28;20050;-34
2022/07/09 07:23:50;;;;;;;6.90;3.63;;;19.20;99.90;;;;;;5070091;28;20041;-35
2022/07/09 07:26:16;;;;;;;4.88;3.13;;;19.40;99.90;;;;;;5035226;28;20063;-33
2022/07/09 07:28:41;;;;;;;4.70;3.30;;;19.50;99.90;;;;;;5077731;28;20399;-35
2022/07/09 07:31:07;;;;;;;4.93;3.33;;;19.60;99.90;;;;;;5057316;28;20115;-35
2022/07/09 07:33:33;;;;;;;4.78;3.10;;;19.70;99.90;;;;;;5081948;28;20036;-35
2022/07/09 07:35:58;;;;;;;4.70;2.80;;;19.80;99.90;;;;;;5074962;28;20036;-34
2022/07/09 07:38:27;;;;;;;5.30;3.20;;;19.80;99.90;;;;;;5061229;28;20108;-33
2022/07/09 07:40:53;;;;;;;5.50;3.08;;;19.90;99.90;;;;;;5054537;28;20041;-32
2022/07/09 07:43:19;;;;;;;7.57;3.58;;;19.80;99.90;;;;;;5060973;28;20074;-35
2022/07/09 07:45:45;;;;;;;4.80;3.38;;;19.80;99.90;;;;;;5056286;28;20040;-36
2022/07/09 07:48:11;;;;;;;6.00;3.33;;;19.80;99.90;;;;;;5082951;28;20035;-34
2022/07/09 07:50:38;;;;;;;5.03;3.35;;;19.80;99.90;;;;;;5055741;28;20028;-35
2022/07/09 07:53:07;;;;;;;3.80;3.40;;;19.80;99.90;;;;;;5082255;28;20557;-34
2022/07/09 07:55:33;;;;;;;3.80;3.28;;;19.80;99.90;;;;;;5078730;28;20483;-35
2022/07/09 07:57:58;;;;;;;5.40;3.33;;;19.70;99.90;;;;;;5067614;28;20119;-34
2022/07/09 08:00:24;;;;;;;3.53;3.22;;;19.70;99.90;;;;;;5079976;28;20518;-35
2022/07/09 08:02:50;;;;;;;3.97;3.30;;;19.70;99.90;;;;;;5048885;28;20052;-36
2022/07/09 08:05:16;;;;;;;5.65;3.67;;;19.70;99.90;;;;;;5063396;28;20059;-34
2022/07/09 08:07:42;;;;;;;6.10;3.33;;;19.70;99.90;;;;;;5065700;28;20326;-34
2022/07/09 08:10:08;;;;;;;5.10;3.63;;;19.70;99.90;;;;;;5081679;28;20383;-35
2022/07/09 08:12:33;;;;;;;5.28;2.80;;;19.70;99.90;;;;;;5084273;28;20097;-36
2022/07/09 08:14:59;;;;;;;4.63;3.50;;;19.80;99.90;;;;;;5078957;28;20438;-35
2022/07/09 08:17:25;;;;;;;3.72;3.00;;;19.80;99.90;;;;;;5061597;28;20040;-34
2022/07/09 08:19:51;;;;;;;4.50;2.70;;;19.90;99.90;;;;;;5074377;28;20082;-34
2022/07/09 08:22:17;;;;;;;4.68;2.80;;;20.00;99.90;;;;;;5062673;28;20132;-34
2022/07/09 08:24:43;;;;;;;4.57;2.95;;;20.20;99.90;;;;;;5082650;28;20044;-34
2022/07/09 08:27:08;;;;;;;3.20;2.88;;;20.40;99.90;;;;;;5085450;28;20040;-36
2022/07/09 08:29:34;;;;;;;4.72;2.50;;;20.50;99.90;;;;;;5066878;28;20036;-36
2022/07/09 08:32:00;;;;;;;4.53;2.63;;;20.80;99.90;;;;;;5075604;28;20094;-35
2022/07/09 08:34:26;;;;;;;2.85;2.13;;;20.80;99.90;;;;;;5083937;28;20468;-35
2022/07/09 08:36:51;;;;;;;4.95;2.80;;;20.80;99.90;;;;;;5063049;28;20032;-33
2022/07/09 08:39:17;;;;;;;3.28;2.55;;;20.90;99.90;;;;;;5051533;28;20052;-35
2022/07/09 08:41:43;;;;;;;3.78;2.20;;;21.00;99.90;;;;;;5062525;28;20040;-37
2022/07/09 08:44:15;;;;;;;3.67;2.63;;;21.50;99.90;;;;;;5086359;28;20036;-34
2022/07/09 08:46:41;;;;;;;3.97;2.53;;;21.70;99.90;;;;;;5074328;28;20040;-34
2022/07/09 08:49:10;;;;;;;5.43;2.33;;;21.70;99.90;;;;;;5086271;28;20466;-33
2022/07/09 08:51:39;;;;;;;2.95;2.35;;;21.70;99.90;;;;;;5082304;28;20047;-34
2022/07/09 08:54:06;;;;;;;3.05;2.20;;;21.90;99.90;;;;;;5088802;28;20039;-33
2022/07/09 08:56:32;;;;;;;3.33;2.53;;;22.10;99.90;;;;;;5075496;28;20045;-32
2022/07/09 08:58:58;;;;;;;2.78;2.30;;;22.20;99.90;;;;;;5086163;28;20086;-34
2022/07/09 09:01:26;;;;;;;2.35;2.00;;;22.40;99.90;;;;;;5066568;28;20066;-34
2022/07/09 09:03:52;;;;;;;2.30;1.92;;;22.40;99.90;;;;;;5088558;28;20105;-37
2022/07/09 09:06:22;;;;;;;2.13;1.92;;;22.40;99.90;;;;;;5079329;28;20035;-34
2022/07/09 09:08:47;;;;;;;3.67;2.10;;;22.30;99.90;;;;;;5087481;28;20086;-36
2022/07/09 09:11:14;;;;;;;2.97;2.17;;;22.40;99.90;;;;;;5059682;28;20072;-38
2022/07/09 09:13:41;;;;;;;2.90;1.90;;;22.60;99.90;;;;;;5075266;28;20041;-35
2022/07/09 09:16:09;;;;;;;2.65;1.90;;;22.90;99.90;;;;;;5084782;28;20032;-34
2022/07/09 09:18:42;;;;;;;2.00;1.55;;;22.70;99.90;;;;;;5073197;28;20041;-35
2022/07/09 09:21:09;;;;;;;1.80;1.70;;;22.80;99.90;;;;;;5062481;28;20106;-33
2022/07/09 09:24:04;;;;;;;2.60;1.80;;;22.90;99.90;;;;;;5052619;28;20483;-34
2022/07/09 09:26:30;;;;;;;2.15;1.50;;;23.10;99.90;;;;;;5052056;28;20052;-33
2022/07/09 09:29:01;;;;;;;1.75;1.48;;;23.30;99.90;;;;;;5039265;28;20047;-33
2022/07/09 09:31:27;;;;;;;2.45;1.60;;;23.20;99.90;;;;;;5082458;28;20414;-33
2022/07/09 09:33:55;;;;;;;2.20;1.70;;;23.30;99.90;;;;;;5082850;28;20441;-33
2022/07/09 09:36:34;;;;;;;2.15;1.55;;;23.50;99.90;;;;;;5087765;28;20170;-34
2022/07/09 09:39:18;;;;;;;2.38;1.70;;;23.50;99.90;;;;;;5060535;28;20076;-33
2022/07/09 09:41:46;;;;;;;2.03;1.60;;;23.80;99.90;;;;;;5071440;28;20039;-33
2022/07/09 09:44:15;;;;;;;3.05;1.50;;;23.90;99.90;;;;;;5072985;28;20528;-36
2022/07/09 09:46:42;;;;;;;2.08;1.50;;;24.00;99.90;;;;;;5077524;28;20111;-33
2022/07/09 09:49:11;;;;;;;3.38;1.65;;;23.80;99.90;;;;;;5064550;28;20040;-33
2022/07/09 09:51:51;;;;;;;1.75;1.63;;;23.50;99.90;;;;;;5051131;28;20041;-35
2022/07/09 09:54:19;;;;;;;1.60;1.38;;;23.10;99.90;;;;;;5072537;28;20048;-36
2022/07/09 09:56:45;;;;;;;2.50;1.45;;;22.90;99.90;;;;;;5073514;28;20032;-34
2022/07/09 09:59:12;;;;;;;3.63;1.70;;;22.80;99.90;;;;;;5062405;28;20032;-33
2022/07/09 10:01:42;;;;;;;1.85;1.38;;;22.70;99.90;;;;;;5083867;28;20071;-33
2022/07/09 10:04:10;;;;;;;3.35;1.48;;;22.60;99.90;;;;;;5082075;28;20041;-34
2022/07/09 10:06:36;;;;;;;4.47;1.38;;;22.40;99.90;;;;;;5040276;28;20495;-33
2022/07/09 10:09:09;;;;;;;2.85;1.40;;;22.20;99.90;;;;;;5076348;28;20033;-34
2022/07/09 10:11:45;;;;;;;1.88;1.23;;;22.20;99.90;;;;;;5081602;28;20504;-35
2022/07/09 10:14:24;;;;;;;1.98;1.58;;;22.50;99.90;;;;;;5082351;28;20039;-32
2022/07/09 10:16:51;;;;;;;1.73;1.50;;;23.10;99.90;;;;;;5083066;28;20033;-38
2022/07/09 10:19:32;;;;;;;2.67;1.33;;;23.70;99.90;;;;;;5064061;28;20035;-35
2022/07/09 10:22:00;;;;;;;2.20;1.27;;;24.30;99.90;;;;;;5056105;28;20045;-34
2022/07/09 10:24:33;;;;;;;1.42;1.00;;;24.70;99.90;;;;;;5084560;28;20056;-33
2022/07/09 10:27:09;;;;;;;1.95;1.13;;;25.30;99.90;;;;;;5080760;28;20498;-33
2022/07/09 10:29:50;;;;;;;1.90;1.10;;;25.60;99.10;;;;;;5070703;23;20049;-29
2022/07/09 10:32:29;;;;;;;1.23;1.13;;;25.50;99.50;;;;;;5044479;28;20510;-30
2022/07/09 10:34:58;;;;;;;1.88;1.17;;;25.10;96.70;;;;;;5061917;28;20084;-29
2022/07/09 10:37:52;;;;;;;3.20;1.10;;;24.70;98.50;;;;;;5065880;28;20045;-29
2022/07/09 10:40:20;;;;;;;5.60;1.65;;;24.40;96.80;;;;;;5059150;28;20045;-29
2022/07/09 10:43:01;;;;;;;2.70;1.33;;;24.10;99.90;;;;;;5067783;28;20080;-29
2022/07/09 10:45:38;;;;;;;4.88;1.20;;;24.00;99.80;;;;;;5061872;28;20033;-29
2022/07/09 10:48:06;;;;;;;1.70;1.38;;;24.20;99.90;;;;;;5056627;28;20044;-29
2022/07/09 10:50:35;;;;;;;2.13;1.33;;;24.70;99.90;;;;;;5046952;28;20052;-29
2022/07/09 10:53:02;;;;;;;3.15;1.30;;;24.90;99.90;;;;;;5073802;28;20041;-29
2022/07/09 10:55:29;;;;;;;2.28;1.50;;;25.00;98.40;;;;;;5062898;28;20032;-29
2022/07/09 10:57:55;;;;;;;1.98;1.27;;;25.10;97.50;;;;;;5061953;28;20044;-29
2022/07/09 11:00:26;;;;;;;2.80;1.35;;;24.70;97.30;;;;;;5069305;28;20047;-29
2022/07/09 11:03:02;;;;;;;3.20;1.23;;;24.30;96.50;;;;;;5062126;28;20141;-29
2022/07/09 11:05:29;;;;;;;3.45;1.10;;;24.00;97.20;;;;;;5077447;28;20457;-29
2022/07/09 11:07:59;;;;;;;1.90;1.33;;;23.90;98.90;;;;;;5060972;28;20041;-29
2022/07/09 11:10:27;;;;;;;1.88;1.20;;;23.70;98.60;;;;;;5067385;28;20039;-29
2022/07/09 11:12:54;;;;;;;2.88;1.60;;;23.60;99.30;;;;;;5061875;28;20036;-29
2022/07/09 11:15:21;;;;;;;1.42;1.15;;;23.90;99.90;;;;;;5059486;28;20036;-31
2022/07/09 11:18:01;;;;;;;3.85;1.40;;;24.20;99.90;;;;;;5080542;28;20041;-29
2022/07/09 11:20:29;;;;;;;13.13;2.13;;;24.50;98.60;;;;;;5062457;28;20440;-29
2022/07/09 11:22:56;;;;;;;7.07;1.58;;;24.70;94.80;;;;;;5065263;28;20372;-29
2022/07/09 11:25:24;;;;;;;11.10;2.17;;;24.70;95.70;;;;;;5062289;28;20029;-29
2022/07/09 11:27:50;;;;;;;6.00;1.80;;;25.00;96.50;;;;;;5065989;28;20107;-29
2022/07/09 11:30:16;;;;;;;2.45;1.20;;;25.40;96.90;;;;;;5067691;28;20115;-29
2022/07/09 11:32:46;;;;;;;3.28;1.40;;;25.70;97.20;;;;;;5055665;28;20133;-29
2022/07/09 11:35:12;;;;;;;2.92;1.52;;;25.80;95.00;;;;;;5065340;28;20042;-29
2022/07/09 11:37:38;;;;;;;2.13;1.20;;;25.40;93.20;;;;;;5049294;28;20082;-29
2022/07/09 11:40:04;;;;;;;2.90;1.33;;;24.80;91.50;;;;;;5063194;28;20047;-29
2022/07/09 11:42:30;;;;;;;3.80;1.30;;;24.90;93.40;;;;;;5062029;28;20093;-29
2022/07/09 11:45:02;;;;;;;2.20;1.00;;;25.00;92.00;;;;;;5031995;28;20041;-29
2022/07/09 11:47:35;;;;;;;2.35;1.38;;;25.40;91.70;;;;;;5069688;28;20076;-29
2022/07/09 11:50:11;;;;;;;2.97;1.23;;;25.70;90.90;;;;;;5068370;28;20044;-29
2022/07/09 11:52:57;;;;;;;4.63;1.58;;;25.80;88.60;;;;;;5046025;28;20107;-29
2022/07/09 11:55:30;;;;;;;6.90;1.63;;;26.20;92.90;;;;;;5058670;28;20052;-29
2022/07/09 11:57:59;;;;;;;3.28;1.40;;;26.40;94.40;;;;;;5067367;28;20098;-29
2022/07/09 12:00:27;;;;;;;3.55;1.52;;;26.80;95.30;;;;;;5062002;28;20066;-30
2022/07/09 12:02:54;;;;;;;4.47;2.13;;;26.70;93.30;;;;;;5068444;28;20036;-29
2022/07/09 12:05:30;;;;;;;3.95;1.50;;;26.60;92.20;;;;;;5073155;28;20106;-29
2022/07/09 12:07:58;;;;;;;2.85;1.50;;;26.30;91.90;;;;;;5062861;28;20070;-29
2022/07/09 12:10:35;;;;;;;4.55;1.50;;;26.50;92.20;;;;;;5074927;28;20523;-29
2022/07/09 12:13:02;;;;;;;4.28;1.65;;;26.20;90.00;;;;;;5058897;28;20263;-29
2022/07/09 12:15:29;;;;;;;4.45;1.48;;;26.20;91.40;;;;;;5055689;28;20161;-29
2022/07/09 12:18:01;;;;;;;1.92;1.55;;;26.60;92.20;;;;;;5074919;28;20060;-30
2022/07/09 12:20:29;;;;;;;2.08;1.30;;;27.00;89.80;;;;;;5032803;28;20037;-30
2022/07/09 12:22:55;;;;;;;4.57;1.42;;;27.40;85.30;;;;;;5067548;28;20040;-30
2022/07/09 12:25:21;;;;;;;4.60;1.65;;;27.60;80.20;;;;;;5068537;28;20075;-28
2022/07/09 12:27:49;;;;;;;4.50;1.70;;;27.60;78.00;;;;;;5047509;28;20146;-27
2022/07/09 12:30:15;;;;;;;3.75;1.60;;;27.60;77.80;;;;;;5076843;28;20048;-28
2022/07/09 12:32:41;;;;;;;2.80;1.40;;;27.40;77.40;;;;;;5054269;28;20088;-28
2022/07/09 12:35:07;;;;;;;5.53;1.70;;;27.10;70.50;;;;;;5032679;28;20441;-28
2022/07/09 12:37:36;;;;;;;2.05;1.30;;;26.60;76.40;;;;;;5067172;28;20044;-28
2022/07/09 12:40:04;;;;;;;3.78;1.55;;;26.50;76.90;;;;;;5054708;28;20044;-28
2022/07/09 12:42:30;;;;;;;3.67;1.80;;;26.50;77.50;;;;;;5090399;28;20055;-28
2022/07/09 12:44:55;;;;;;;3.05;1.40;;;26.20;77.00;;;;;;5091522;28;20077;-29
2022/07/09 12:47:21;;;;;;;3.78;1.52;;;25.70;77.60;;;;;;5053747;28;20040;-28
2022/07/09 12:49:47;;;;;;;3.55;1.55;;;25.70;82.70;;;;;;5050997;28;20044;-28
2022/07/09 12:52:12;;;;;;;3.35;1.23;;;25.40;86.30;;;;;;5088303;28;20119;-28
2022/07/09 12:54:38;;;;;;;2.17;1.10;;;25.30;86.60;;;;;;5081111;28;20028;-28
2022/07/09 12:57:04;;;;;;;3.38;1.17;;;25.70;82.80;;;;;;5074588;28;20071;-28
2022/07/09 12:59:30;;;;;;;2.78;1.00;;;26.10;82.10;;;;;;5090303;28;20093;-28
2022/07/09 13:01:56;;;;;;;2.60;1.23;;;26.50;76.70;;;;;;5041393;28;20067;-28
2022/07/09 13:04:21;;;;;;;2.95;1.10;;;26.70;77.10;;;;;;5050322;28;20531;-28
2022/07/09 13:06:47;;;;;;;4.10;1.20;;;26.90;68.80;;;;;;5054693;28;20044;-28
2022/07/09 13:09:13;;;;;;;2.75;1.20;;;27.20;66.50;;;;;;5069939;28;20037;-28
2022/07/09 13:11:39;;;;;;;2.63;1.15;;;27.30;61.30;;;;;;5063883;28;20044;-28
2022/07/09 13:14:05;;;;;;;2.10;0.73;;;27.40;60.80;;;;;;5065854;28;20076;-28
2022/07/09 13:16:31;;;;;;;2.72;0.98;;;27.80;60.10;;;;;;5070512;28;20037;-28
2022/07/09 13:18:57;;;;;;;3.05;0.90;;;28.10;57.10;;;;;;5061020;28;20206;-28
2022/07/09 13:21:23;;;;;;;1.67;0.80;;;28.30;54.80;;;;;;5064377;28;20116;-29
2022/07/09 13:23:49;;;;;;;1.38;0.90;;;28.10;52.70;;;;;;5070857;28;20381;-29